Aérodrome :
LOGIN :

S'inscrire | Disclaimer

   EN    FR    IT 

 










Légende :    VFR   VFR Marginal   IFR   IFR Intensif   IFR Très Intensif
Visi : 
Plafond : 
>= 8 km
>= 3000ft
5 à 8 km
1000 à 3000 ft
1500m à 5 km
500 à 1000 ft
800 à 1500m
200 à 500 ft
< 800m
< 200 ft
Symboles :   Orages  Brouillard  Fortes neiges  Fortes précipitations  Vent > 20 kt
SIGMETs :   Divers  Orages  Givrage  Turbulence  Onde Orograph.  Cendres Volcan.







- Altitude de l'aérodrome : 622 ft
- Code IATA : BRS
- Voir les cartes d'approche


EGGD - Bristol Int.

DERNIER METAR :
  • 190320Z AUTO 26012KT 9999 FEW016 12/11 Q1015

METARs EXPIRÉS :
  • 190250Z AUTO 26011KT 9999 BKN015 12/11 Q1015
  • 190220Z AUTO 27010KT 9999 SCT016 12/11 Q1015
  • 190150Z AUTO 25008KT 9999 FEW016 SCT022 12/11 Q1014
  • 190120Z AUTO 26013KT 9999 SCT013 SCT025 13/11 Q1014
  • 190050Z AUTO 26013KT 9999 SCT014/// BKN020/// //////TCU 13/12 Q1014

TAF AMD TAF EGGD
Valide du 19 à 00h jusqu'au 20 à 00h UTC


190013Z 1900/1924 27012KT 9999 SCT025
TEMPO 1900/1902 BKN014
TEMPO 1909/1920 27016G26KT
ATIS : +44 1275 473 666
Pas de NOTAMs connus pour ce terrain.



MET'MAP, la Météo Aéronautique d'un coup d'oeil ! - Copyright ORBIFLY Décembre 2007 - Disclaimer

ORBIFLY MET'MAP TEAM :

Programmation & Développement : Alexandra Zaïnal
Conception & Développement : Baudouin d'Aumeries
Co-Programmation & Développement : Marc-Olivier Méhu
Soutien technique & logistique : Manuel Goepfert

Contact : metmap@orbifly.com




SOURCES & CREDITS :

   NOAA